Time;durP1;ratioP1;P1;durP2;ratioP2;P2;SDS_P1;SDS_P2;PMS_P1;PMS_P2;Temp;Humidity;BMP_temperature;BMP_pressure;BME280_temperature;BME280_humidity;BME280_pressure;Samples;Min_cycle;Max_cycle;Signal;HPM_P1;HPM_P2
2022/02/25 00:00:59;;;;;;;1.53;1.00;;;17.80;65.30;;;;;;10406449;28;20221;-64
2022/02/25 00:06:21;;;;;;;1.93;1.00;;;17.80;65.20;;;;;;10410515;28;20214;-63
2022/02/25 00:11:45;;;;;;;1.63;1.10;;;17.70;65.20;;;;;;10410573;28;20597;-64
2022/02/25 00:17:07;;;;;;;1.40;0.90;;;17.80;65.30;;;;;;10403993;28;20229;-63
2022/02/25 00:22:29;;;;;;;1.70;1.00;;;17.70;65.20;;;;;;10410475;28;20193;-63
2022/02/25 00:27:52;;;;;;;2.10;1.07;;;17.80;65.20;;;;;;10370121;28;20586;-64
2022/02/25 00:33:16;;;;;;;1.97;1.10;;;17.70;65.10;;;;;;10369632;28;20217;-63
2022/02/25 00:38:39;;;;;;;2.63;1.20;;;17.80;65.20;;;;;;10407175;28;20297;-63
2022/02/25 00:44:02;;;;;;;0.83;0.80;;;17.80;65.20;;;;;;10408469;28;20201;-63
2022/02/25 00:49:24;;;;;;;1.77;0.83;;;17.80;65.20;;;;;;10409688;28;20194;-63
2022/02/25 00:54:46;;;;;;;1.80;1.00;;;17.80;65.10;;;;;;10410286;28;20221;-63
2022/02/25 01:00:11;;;;;;;1.63;0.83;;;17.80;65.10;;;;;;10415604;28;20225;-63
2022/02/25 01:05:34;;;;;;;1.67;0.90;;;17.80;65.10;;;;;;10418871;28;20229;-63
2022/02/25 01:10:56;;;;;;;2.17;1.00;;;17.70;65.10;;;;;;10417470;28;20193;-63
2022/02/25 01:16:20;;;;;;;1.90;0.90;;;17.70;65.00;;;;;;10416824;28;20588;-63
2022/02/25 01:21:42;;;;;;;1.23;0.57;;;17.70;65.00;;;;;;10418780;28;20269;-64
2022/02/25 01:27:06;;;;;;;1.67;0.63;;;17.80;65.10;;;;;;10418361;28;20222;-63
2022/02/25 01:32:30;;;;;;;0.73;0.63;;;17.70;65.00;;;;;;10416822;28;20201;-63
2022/02/25 01:37:52;;;;;;;1.77;0.70;;;17.70;65.00;;;;;;10416477;28;20464;-63
2022/02/25 01:43:14;;;;;;;1.57;0.80;;;17.70;65.00;;;;;;10414727;28;20720;-63
2022/02/25 01:48:38;;;;;;;1.37;0.70;;;17.80;65.00;;;;;;10416255;28;20217;-63
2022/02/25 01:54:00;;;;;;;1.57;0.70;;;17.80;65.00;;;;;;10394410;28;20197;-63
2022/02/25 01:59:22;;;;;;;1.03;0.60;;;17.70;65.00;;;;;;10414626;28;20218;-63
2022/02/25 02:04:46;;;;;;;1.43;0.80;;;17.70;65.00;;;;;;10414777;28;20693;-64
2022/02/25 02:10:09;;;;;;;0.83;0.37;;;17.70;65.00;;;;;;10414788;28;20201;-63
2022/02/25 02:15:31;;;;;;;1.43;0.70;;;17.70;64.90;;;;;;10416597;28;20214;-64
2022/02/25 02:20:54;;;;;;;1.87;0.50;;;17.70;64.90;;;;;;10414467;28;20217;-63
2022/02/25 02:26:18;;;;;;;1.90;0.80;;;17.70;64.90;;;;;;10413704;28;20696;-63
2022/02/25 02:31:41;;;;;;;1.57;0.60;;;17.70;64.90;;;;;;10415006;28;20185;-63
2022/02/25 02:37:03;;;;;;;0.93;0.73;;;17.70;64.90;;;;;;10414418;28;20228;-63
2022/02/25 02:42:27;;;;;;;2.40;0.80;;;17.70;64.90;;;;;;10413883;28;20711;-63
2022/02/25 02:47:49;;;;;;;1.47;0.93;;;17.70;64.90;;;;;;10413804;28;20218;-63
2022/02/25 02:53:11;;;;;;;1.63;0.90;;;17.70;64.80;;;;;;10413232;28;20198;-63
2022/02/25 02:58:35;;;;;;;1.33;0.60;;;17.70;64.80;;;;;;10415737;28;20225;-64
2022/02/25 03:03:58;;;;;;;1.97;0.73;;;17.70;64.80;;;;;;10413936;28;20193;-64
2022/02/25 03:09:20;;;;;;;2.50;0.90;;;17.70;64.80;;;;;;10413272;28;20197;-63
2022/02/25 03:14:44;;;;;;;1.97;0.70;;;17.70;64.80;;;;;;10411459;28;20218;-63
2022/02/25 03:20:08;;;;;;;1.10;0.60;;;17.70;64.80;;;;;;10411552;28;20236;-64
2022/02/25 03:25:30;;;;;;;1.23;0.70;;;17.70;64.80;;;;;;10412516;28;20703;-63
2022/02/25 03:30:54;;;;;;;1.07;0.80;;;17.70;64.70;;;;;;10412372;28;20201;-63
2022/02/25 03:36:16;;;;;;;1.10;0.70;;;17.70;64.70;;;;;;10434559;22;20233;-64
2022/02/25 03:41:38;;;;;;;2.30;0.50;;;17.70;64.70;;;;;;10410578;28;20222;-64
2022/02/25 03:47:02;;;;;;;1.43;0.60;;;17.70;64.70;;;;;;10400083;28;20236;-64
2022/02/25 03:52:24;;;;;;;0.90;0.53;;;17.70;64.70;;;;;;10382515;28;20195;-64
2022/02/25 03:57:46;;;;;;;3.23;0.60;;;17.70;64.60;;;;;;10370659;28;20218;-64
2022/02/25 04:03:09;;;;;;;1.40;0.70;;;17.70;64.60;;;;;;10373964;28;20209;-64
2022/02/25 04:08:33;;;;;;;1.30;0.67;;;17.70;64.60;;;;;;10403111;28;20688;-63
2022/02/25 04:13:55;;;;;;;1.30;0.80;;;17.70;64.60;;;;;;10405069;28;20198;-64
2022/02/25 04:19:19;;;;;;;0.80;0.50;;;17.70;64.60;;;;;;10370614;28;20719;-64
2022/02/25 04:24:42;;;;;;;1.20;0.63;;;17.70;64.60;;;;;;10369295;28;20219;-64
2022/02/25 04:30:05;;;;;;;1.63;0.63;;;17.70;64.60;;;;;;10370371;28;20194;-64
2022/02/25 04:35:28;;;;;;;1.53;0.70;;;17.70;64.50;;;;;;10369358;28;20574;-64
2022/02/25 04:40:50;;;;;;;1.60;0.70;;;17.70;64.60;;;;;;10369672;28;20222;-64
2022/02/25 04:46:16;;;;;;;1.00;0.50;;;17.70;64.50;;;;;;10372074;28;20225;-64
2022/02/25 04:51:41;;;;;;;1.13;0.53;;;17.70;64.40;;;;;;10379036;28;20277;-64
2022/02/25 04:57:03;;;;;;;1.30;0.70;;;17.70;65.00;;;;;;10388366;28;20225;-64
2022/02/25 05:02:25;;;;;;;1.40;0.60;;;17.70;64.40;;;;;;10393540;28;20210;-63
2022/02/25 05:07:49;;;;;;;0.90;0.50;;;17.80;64.40;;;;;;10369654;28;20297;-64
2022/02/25 05:13:11;;;;;;;1.17;0.60;;;17.80;64.40;;;;;;10368741;28;20210;-64
2022/02/25 05:24:14;;;;;;;1.63;0.50;;;17.80;64.40;;;;;;10388109;28;20255;-64
2022/02/25 05:29:37;;;;;;;0.53;0.47;;;17.80;64.40;;;;;;10378547;28;20743;-64
2022/02/25 05:34:59;;;;;;;0.80;0.60;;;17.70;64.40;;;;;;10348474;28;20735;-64
2022/02/25 05:40:23;;;;;;;1.10;0.70;;;17.80;64.40;;;;;;10382791;28;20214;-64
2022/02/25 05:45:45;;;;;;;1.23;0.50;;;17.70;64.40;;;;;;10410215;28;20716;-64
2022/02/25 05:51:08;;;;;;;1.60;0.60;;;17.80;64.40;;;;;;10389433;28;20206;-64
2022/02/25 05:56:31;;;;;;;1.60;0.50;;;17.70;64.40;;;;;;10373925;28;20222;-64
2022/02/25 06:01:53;;;;;;;1.47;0.60;;;17.70;64.40;;;;;;10375838;28;20297;-64
2022/02/25 06:07:15;;;;;;;0.90;0.50;;;17.70;64.40;;;;;;10373379;28;20214;-64
2022/02/25 06:12:40;;;;;;;1.87;0.40;;;17.70;64.30;;;;;;10374045;28;20201;-64
2022/02/25 06:18:02;;;;;;;1.40;0.50;;;17.70;64.30;;;;;;10375486;28;20214;-64
2022/02/25 06:23:24;;;;;;;0.67;0.50;;;17.70;64.30;;;;;;10374165;28;20199;-64
2022/02/25 06:28:48;;;;;;;1.77;0.70;;;17.70;64.30;;;;;;10374216;28;20314;-64
2022/02/25 06:34:10;;;;;;;1.70;0.80;;;17.80;64.20;;;;;;10373699;28;20555;-64
2022/02/25 06:39:32;;;;;;;2.00;0.73;;;17.70;64.20;;;;;;10358367;28;20303;-64
2022/02/25 06:44:56;;;;;;;1.20;0.60;;;17.70;64.20;;;;;;10357527;28;20233;-64
2022/02/25 06:50:19;;;;;;;1.47;0.73;;;17.70;64.20;;;;;;10387157;28;20194;-60
2022/02/25 06:55:42;;;;;;;2.33;0.83;;;17.80;64.20;;;;;;10372605;28;20222;-58
2022/02/25 07:01:06;;;;;;;2.37;0.97;;;17.70;64.10;;;;;;10371995;28;20360;-58
2022/02/25 07:06:28;;;;;;;2.90;0.70;;;17.70;63.90;;;;;;10402052;28;20217;-58
2022/02/25 07:11:50;;;;;;;3.77;1.13;;;17.70;63.30;;;;;;10413179;28;20202;-60
2022/02/25 07:17:14;;;;;;;2.70;1.03;;;17.70;62.80;;;;;;10388622;28;20601;-58
2022/02/25 07:22:37;;;;;;;3.67;1.23;;;17.70;62.10;;;;;;10412392;28;20210;-59
2022/02/25 07:27:59;;;;;;;2.97;1.10;;;17.60;61.50;;;;;;10404002;28;20692;-59
2022/02/25 07:33:23;;;;;;;4.50;1.40;;;17.60;61.00;;;;;;10370864;28;20199;-63
2022/02/25 07:38:45;;;;;;;4.10;1.60;;;17.60;60.70;;;;;;10371094;28;20582;-57
2022/02/25 07:44:07;;;;;;;4.93;2.00;;;17.60;60.50;;;;;;10371877;28;20201;-58
2022/02/25 07:49:30;;;;;;;4.80;1.53;;;17.60;59.80;;;;;;10390158;28;20208;-60
2022/02/25 07:54:52;;;;;;;4.67;1.90;;;17.60;59.60;;;;;;10370080;28;20217;-60
2022/02/25 08:00:17;;;;;;;6.17;1.90;;;17.60;59.40;;;;;;10371632;28;20229;-60
2022/02/25 08:05:40;;;;;;;3.60;1.50;;;17.60;59.10;;;;;;10370919;28;20222;-58
2022/02/25 08:11:04;;;;;;;3.13;1.40;;;17.60;58.90;;;;;;10376162;28;20190;-59
2022/02/25 08:16:26;;;;;;;5.97;1.57;;;17.60;58.80;;;;;;10370819;28;20292;-61
2022/02/25 08:21:49;;;;;;;4.30;1.97;;;17.60;58.60;;;;;;10370564;28;20221;-60
2022/02/25 08:27:11;;;;;;;4.87;1.70;;;17.60;58.20;;;;;;10370041;28;20215;-59
2022/02/25 08:32:34;;;;;;;6.53;2.00;;;17.60;58.00;;;;;;10368886;28;20194;-59
2022/02/25 08:37:58;;;;;;;5.20;1.57;;;17.60;57.90;;;;;;10370013;28;20233;-58
2022/02/25 08:43:20;;;;;;;3.37;1.50;;;17.60;57.60;;;;;;10366707;28;20202;-59
2022/02/25 08:48:42;;;;;;;4.47;1.73;;;17.60;57.60;;;;;;10384535;28;20763;-60
2022/02/25 08:54:05;;;;;;;3.67;1.37;;;17.60;57.50;;;;;;10346621;28;20218;-60
2022/02/25 08:59:27;;;;;;;3.63;1.23;;;17.60;57.40;;;;;;10369573;28;20229;-60
2022/02/25 09:04:50;;;;;;;5.30;1.57;;;17.60;57.50;;;;;;10370084;28;20218;-60
2022/02/25 09:10:15;;;;;;;4.47;1.43;;;17.60;57.30;;;;;;10380956;28;20199;-59
2022/02/25 09:15:38;;;;;;;4.03;1.87;;;17.60;57.20;;;;;;10368575;28;20262;-61
2022/02/25 09:21:00;;;;;;;5.17;1.30;;;17.60;57.10;;;;;;10373733;28;20214;-59
2022/02/25 09:26:23;;;;;;;4.70;1.57;;;17.60;56.90;;;;;;10376789;28;20218;-58
2022/02/25 09:31:45;;;;;;;5.83;1.70;;;17.60;56.90;;;;;;10377405;28;20194;-59
2022/02/25 09:37:08;;;;;;;3.57;1.60;;;17.50;56.90;;;;;;10401844;22;20244;-65
2022/02/25 09:42:31;;;;;;;3.73;1.83;;;17.50;56.70;;;;;;10372380;28;20720;-65
2022/02/25 09:47:53;;;;;;;4.10;1.50;;;17.60;56.80;;;;;;10372016;28;20782;-64
2022/02/25 09:53:16;;;;;;;6.20;1.63;;;17.60;56.70;;;;;;10371408;28;20198;-65
2022/02/25 09:58:39;;;;;;;2.70;1.40;;;17.50;56.50;;;;;;10371666;28;20603;-65
2022/02/25 10:04:11;;;;;;;3.13;1.23;;;17.50;56.40;;;;;;10372563;28;20267;-65
2022/02/25 10:09:37;;;;;;;3.87;1.60;;;17.50;56.30;;;;;;10371352;28;20218;-65
2022/02/25 10:15:01;;;;;;;4.70;1.53;;;17.50;56.30;;;;;;10371594;28;20198;-65
2022/02/25 10:20:27;;;;;;;5.00;1.70;;;17.60;57.00;;;;;;10372671;28;20229;-65
2022/02/25 10:25:50;;;;;;;3.80;1.70;;;17.50;56.40;;;;;;10372530;28;20198;-65
2022/02/25 10:31:23;;;;;;;3.83;1.40;;;17.50;56.40;;;;;;10370620;28;20226;-65
2022/02/25 10:36:48;;;;;;;3.47;1.13;;;17.50;56.30;;;;;;10372304;28;20214;-64
2022/02/25 10:42:12;;;;;;;4.93;1.53;;;17.50;56.30;;;;;;10370320;28;20368;-65
2022/02/25 10:47:35;;;;;;;4.07;1.40;;;17.50;56.30;;;;;;10371449;28;20341;-65
2022/02/25 10:52:58;;;;;;;4.80;1.80;;;17.50;56.30;;;;;;10371488;28;20689;-65
2022/02/25 10:58:20;;;;;;;3.63;1.30;;;17.50;56.30;;;;;;10370887;28;20216;-65
2022/02/25 11:03:59;;;;;;;5.97;1.50;;;17.50;56.20;;;;;;10371213;28;20210;-65
2022/02/25 11:09:23;;;;;;;3.97;1.77;;;17.50;56.10;;;;;;10370393;28;20595;-65
2022/02/25 11:14:46;;;;;;;5.07;1.40;;;17.50;56.40;;;;;;10369080;28;20209;-64
2022/02/25 11:20:11;;;;;;;3.53;1.30;;;17.60;56.30;;;;;;10365249;28;20218;-64
2022/02/25 11:25:35;;;;;;;3.30;1.40;;;17.50;56.50;;;;;;10362592;28;20199;-64
2022/02/25 11:31:02;;;;;;;4.37;1.23;;;17.60;56.90;;;;;;10366995;28;20210;-65
2022/02/25 11:36:44;;;;;;;4.40;1.30;;;17.50;57.10;;;;;;10370408;28;20214;-65
2022/02/25 11:42:08;;;;;;;4.03;1.23;;;17.60;57.20;;;;;;10368077;28;20218;-64
2022/02/25 11:47:36;;;;;;;2.50;0.87;;;17.50;57.50;;;;;;10368044;28;20214;-65
2022/02/25 11:53:01;;;;;;;3.73;1.33;;;17.50;57.70;;;;;;10368588;28;20186;-65
2022/02/25 11:58:46;;;;;;;2.63;1.10;;;17.50;57.90;;;;;;10367986;28;20227;-65
2022/02/25 12:04:12;;;;;;;4.17;1.27;;;17.50;57.90;;;;;;10365647;28;20220;-66
2022/02/25 12:09:48;;;;;;;2.57;1.07;;;17.50;58.20;;;;;;10368507;28;20206;-65
2022/02/25 12:15:14;;;;;;;3.40;1.10;;;17.60;58.20;;;;;;10367990;28;20595;-66
2022/02/25 12:20:37;;;;;;;3.87;1.57;;;17.50;58.30;;;;;;10368401;28;20225;-65
2022/02/25 12:26:05;;;;;;;2.17;1.17;;;17.50;58.40;;;;;;10367651;28;20198;-68
2022/02/25 12:31:43;;;;;;;2.60;0.90;;;17.50;58.40;;;;;;10368597;28;20203;-70
2022/02/25 12:37:06;;;;;;;3.73;1.03;;;17.50;58.50;;;;;;10367965;28;20209;-66
2022/02/25 12:42:31;;;;;;;1.83;0.87;;;17.50;58.80;;;;;;10362708;28;20733;-67
2022/02/25 12:47:53;;;;;;;2.57;1.20;;;17.50;58.90;;;;;;10367635;28;20271;-69
2022/02/25 12:53:15;;;;;;;2.27;0.90;;;17.50;59.00;;;;;;10369931;28;20198;-69
2022/02/25 12:58:38;;;;;;;2.07;1.07;;;17.50;59.60;;;;;;10375395;28;20710;-70
2022/02/25 13:04:04;;;;;;;2.23;0.80;;;17.50;59.20;;;;;;10376098;28;20579;-70
2022/02/25 13:09:28;;;;;;;1.73;0.67;;;17.50;59.30;;;;;;10373493;28;20748;-72
2022/02/25 13:14:53;;;;;;;2.20;0.97;;;17.50;59.30;;;;;;10375712;28;20210;-68
2022/02/25 13:20:15;;;;;;;1.00;0.60;;;17.60;59.50;;;;;;10375089;28;20291;-68
2022/02/25 13:25:37;;;;;;;1.67;0.90;;;17.50;59.60;;;;;;10374765;28;20190;-69
2022/02/25 13:31:03;;;;;;;1.30;0.70;;;17.60;59.70;;;;;;10376175;28;20214;-69
2022/02/25 13:36:25;;;;;;;1.40;0.70;;;17.50;59.80;;;;;;10374901;28;20214;-68
2022/02/25 13:41:47;;;;;;;1.70;0.60;;;17.50;60.50;;;;;;10376583;28;20229;-68
2022/02/25 13:52:59;;;;;;;2.37;0.83;;;17.50;60.10;;;;;;10373663;28;20190;-70
2022/02/25 13:58:21;;;;;;;1.33;0.70;;;17.50;60.20;;;;;;10373411;28;20687;-69
2022/02/25 14:03:45;;;;;;;2.23;0.93;;;17.50;60.30;;;;;;10372234;28;20230;-69
2022/02/25 14:09:17;;;;;;;2.43;0.90;;;17.60;60.60;;;;;;10373712;28;20587;-71
2022/02/25 14:14:41;;;;;;;2.27;0.87;;;17.60;60.40;;;;;;10373451;28;20191;-70
2022/02/25 14:20:06;;;;;;;1.83;0.80;;;17.60;60.50;;;;;;10372576;28;20587;-69
2022/02/25 14:25:30;;;;;;;1.60;0.70;;;17.60;60.40;;;;;;10371853;28;20191;-69
2022/02/25 14:30:55;;;;;;;1.83;0.80;;;17.60;60.30;;;;;;10371685;28;20210;-71
2022/02/25 14:36:21;;;;;;;1.43;0.90;;;17.60;60.30;;;;;;10371525;28;20203;-69
2022/02/25 14:41:43;;;;;;;2.90;1.10;;;17.70;60.20;;;;;;10368568;28;20591;-69
2022/02/25 14:47:05;;;;;;;3.00;1.13;;;17.70;60.20;;;;;;10368355;28;20424;-68
2022/02/25 14:52:31;;;;;;;2.83;1.23;;;18.30;58.20;;;;;;10370010;28;21188;-69
2022/02/25 14:57:55;;;;;;;2.90;0.80;;;18.30;58.50;;;;;;10367111;28;20241;-70
2022/02/25 15:03:18;;;;;;;5.90;1.00;;;18.10;59.20;;;;;;10368097;28;20214;-70
2022/02/25 15:08:41;;;;;;;2.40;1.03;;;17.90;59.80;;;;;;10372066;28;20214;-70
2022/02/25 15:14:04;;;;;;;1.93;0.80;;;17.80;60.20;;;;;;10347489;28;20217;-70
2022/02/25 15:19:26;;;;;;;2.97;1.00;;;17.80;60.50;;;;;;10366969;28;20213;-70
2022/02/25 15:24:49;;;;;;;2.23;0.83;;;17.70;60.70;;;;;;10388714;28;20560;-71
2022/02/25 15:30:13;;;;;;;3.70;0.70;;;17.70;60.90;;;;;;10369830;28;20218;-70
2022/02/25 15:35:35;;;;;;;2.47;0.70;;;17.70;61.00;;;;;;10369002;28;20210;-70
2022/02/25 15:40:59;;;;;;;2.97;0.83;;;17.70;61.20;;;;;;10367587;28;20223;-70
2022/02/25 15:46:21;;;;;;;2.13;0.80;;;17.60;61.20;;;;;;10369413;28;20241;-70
2022/02/25 15:51:43;;;;;;;1.67;0.70;;;17.60;61.20;;;;;;10368483;28;20210;-71
2022/02/25 15:57:07;;;;;;;1.77;0.70;;;17.60;61.20;;;;;;10367983;28;20207;-71
2022/02/25 16:02:30;;;;;;;1.47;0.57;;;17.60;61.40;;;;;;10324197;28;20268;-71
2022/02/25 16:07:52;;;;;;;1.27;0.60;;;17.60;61.50;;;;;;10356984;28;20641;-71
2022/02/25 16:13:15;;;;;;;1.80;0.70;;;17.60;61.50;;;;;;10346075;28;20573;-71
2022/02/25 16:18:40;;;;;;;1.23;0.60;;;17.60;61.50;;;;;;10344286;28;20206;-71
2022/02/25 16:24:02;;;;;;;2.67;0.73;;;17.60;61.50;;;;;;10365780;28;20217;-71
2022/02/25 16:29:26;;;;;;;1.60;0.60;;;17.60;61.50;;;;;;10366234;28;20225;-71
2022/02/25 16:34:48;;;;;;;1.27;0.67;;;17.60;61.40;;;;;;10366439;28;20209;-70
2022/02/25 16:40:12;;;;;;;2.00;0.57;;;17.60;61.40;;;;;;10365449;28;20727;-71
2022/02/25 16:45:38;;;;;;;2.00;0.70;;;17.60;61.50;;;;;;10365669;28;20198;-71
2022/02/25 16:51:01;;;;;;;0.93;0.60;;;17.60;61.70;;;;;;10364928;28;20217;-70
2022/02/25 16:56:23;;;;;;;2.30;0.63;;;17.60;61.80;;;;;;10367839;28;20218;-70
2022/02/25 17:01:47;;;;;;;1.00;0.60;;;17.60;62.10;;;;;;10361217;28;20225;-70
2022/02/25 17:07:09;;;;;;;1.00;0.53;;;17.60;62.10;;;;;;10367615;28;20210;-70
2022/02/25 17:12:31;;;;;;;1.07;0.73;;;17.60;62.00;;;;;;10349840;28;20199;-70
2022/02/25 17:17:55;;;;;;;1.37;0.67;;;17.60;62.10;;;;;;10366457;28;20222;-70
2022/02/25 17:23:18;;;;;;;1.30;0.80;;;17.60;62.20;;;;;;10365775;28;20356;-70
2022/02/25 17:28:40;;;;;;;1.90;0.95;;;17.60;62.20;;;;;;10364205;28;20454;-69
2022/02/25 17:34:04;;;;;;;1.03;0.53;;;17.80;61.70;;;;;;10363559;28;20194;-69
2022/02/25 17:39:26;;;;;;;1.23;0.80;;;17.70;61.80;;;;;;10363999;28;20249;-68
2022/02/25 17:44:49;;;;;;;1.70;0.70;;;17.60;62.00;;;;;;10370107;28;20202;-70
2022/02/25 17:50:13;;;;;;;1.13;0.60;;;17.60;62.10;;;;;;10371164;28;20206;-69
2022/02/25 17:55:35;;;;;;;2.40;0.90;;;17.60;62.20;;;;;;10370747;28;20195;-69
2022/02/25 18:01:00;;;;;;;2.63;1.03;;;17.60;62.20;;;;;;10373404;28;20284;-68
2022/02/25 18:06:24;;;;;;;1.73;0.90;;;17.60;62.20;;;;;;10370747;28;20202;-69
2022/02/25 18:11:46;;;;;;;2.43;0.90;;;17.60;62.20;;;;;;10372469;28;20222;-69
2022/02/25 18:17:08;;;;;;;1.07;0.70;;;17.60;62.00;;;;;;10367948;28;20690;-68
2022/02/25 18:22:32;;;;;;;1.37;0.70;;;17.60;62.00;;;;;;10376305;28;20213;-69
2022/02/25 18:27:55;;;;;;;1.47;0.87;;;17.60;62.00;;;;;;10359493;28;20233;-70
2022/02/25 18:33:17;;;;;;;1.57;0.93;;;17.60;62.00;;;;;;10332876;28;20187;-69
2022/02/25 18:38:41;;;;;;;1.80;0.63;;;17.60;62.10;;;;;;10347484;28;20222;-71
2022/02/25 18:44:04;;;;;;;2.23;0.80;;;17.60;62.20;;;;;;10368080;28;20226;-71
2022/02/25 18:49:26;;;;;;;1.60;0.80;;;17.60;62.20;;;;;;10369273;28;20217;-71
2022/02/25 18:54:50;;;;;;;1.77;1.10;;;17.60;62.20;;;;;;10368941;28;20194;-71
2022/02/25 19:00:14;;;;;;;2.37;0.87;;;17.60;62.20;;;;;;10372811;28;20222;-71
2022/02/25 19:05:38;;;;;;;2.67;1.00;;;17.60;62.40;;;;;;10367178;28;20195;-71
2022/02/25 19:11:01;;;;;;;2.43;1.13;;;17.60;62.40;;;;;;10367521;28;20210;-71
2022/02/25 19:16:23;;;;;;;2.27;1.20;;;17.60;62.40;;;;;;10368826;28;20205;-71
2022/02/25 19:21:46;;;;;;;2.43;1.07;;;17.60;62.40;;;;;;10370003;28;20289;-69
2022/02/25 19:27:11;;;;;;;1.57;0.80;;;17.60;62.40;;;;;;10370195;28;20198;-70
2022/02/25 19:32:33;;;;;;;2.37;0.90;;;17.60;62.50;;;;;;10367778;28;20269;-68
2022/02/25 19:37:56;;;;;;;2.20;1.00;;;17.60;62.50;;;;;;10366109;28;20233;-69
2022/02/25 19:43:21;;;;;;;1.93;1.00;;;17.60;62.50;;;;;;10366642;28;20214;-69
2022/02/25 19:48:43;;;;;;;2.03;1.00;;;17.60;62.40;;;;;;10388665;22;20245;-63
2022/02/25 19:54:05;;;;;;;2.13;1.03;;;17.60;62.40;;;;;;10384833;28;20190;-62
2022/02/25 19:59:29;;;;;;;2.40;1.00;;;17.60;62.30;;;;;;10365187;28;20222;-63
2022/02/25 20:04:51;;;;;;;2.67;1.00;;;17.60;62.40;;;;;;10363902;28;20695;-62
2022/02/25 20:10:13;;;;;;;2.50;1.17;;;17.60;62.40;;;;;;10363936;28;20205;-63
2022/02/25 20:15:37;;;;;;;2.97;1.20;;;17.60;62.40;;;;;;10364039;28;20314;-63
2022/02/25 20:20:59;;;;;;;3.30;1.10;;;17.60;62.40;;;;;;10361109;28;20704;-63
2022/02/25 20:26:22;;;;;;;3.77;1.30;;;17.60;62.50;;;;;;10363656;28;20720;-63
2022/02/25 20:31:46;;;;;;;2.97;1.27;;;17.60;62.40;;;;;;10395519;28;20812;-63
2022/02/25 20:37:09;;;;;;;3.23;1.37;;;17.60;62.40;;;;;;10397424;28;20213;-63
2022/02/25 20:42:31;;;;;;;2.77;1.30;;;17.50;62.40;;;;;;10363400;28;20277;-63
2022/02/25 20:47:55;;;;;;;2.40;1.23;;;17.50;62.40;;;;;;10363580;28;20210;-63
2022/02/25 20:53:17;;;;;;;3.37;1.40;;;17.60;62.40;;;;;;10367507;28;20194;-63
2022/02/25 20:58:39;;;;;;;2.60;1.23;;;17.60;62.40;;;;;;10369769;28;20218;-62
2022/02/25 21:04:03;;;;;;;4.67;1.60;;;17.60;62.40;;;;;;10367582;28;20214;-63
2022/02/25 21:09:25;;;;;;;4.03;1.40;;;17.50;62.30;;;;;;10367924;28;20218;-63
2022/02/25 21:14:47;;;;;;;3.60;1.63;;;17.50;62.30;;;;;;10373371;28;20190;-63
2022/02/25 21:20:11;;;;;;;4.30;1.47;;;17.50;62.40;;;;;;10377289;28;20191;-63
2022/02/25 21:25:35;;;;;;;3.53;1.50;;;17.60;62.70;;;;;;10375838;28;20211;-62
2022/02/25 21:30:57;;;;;;;3.93;1.77;;;17.60;62.40;;;;;;10413638;28;20196;-62
2022/02/25 21:36:20;;;;;;;3.20;1.40;;;17.50;62.40;;;;;;10416203;28;20228;-62
2022/02/25 21:41:43;;;;;;;2.57;1.27;;;17.60;62.40;;;;;;10375198;28;20572;-63
2022/02/25 21:47:06;;;;;;;2.07;1.37;;;17.50;62.30;;;;;;10408482;28;20236;-63
2022/02/25 21:52:29;;;;;;;3.70;1.33;;;17.50;62.40;;;;;;10394109;28;20329;-63
2022/02/25 21:57:51;;;;;;;2.53;1.27;;;17.50;62.40;;;;;;10375755;28;20214;-63
2022/02/25 22:03:14;;;;;;;4.60;1.30;;;17.50;62.40;;;;;;10376795;28;20206;-63
2022/02/25 22:08:37;;;;;;;3.97;1.57;;;17.50;62.40;;;;;;10337748;28;20215;-63
2022/02/25 22:13:59;;;;;;;4.63;1.57;;;17.50;62.30;;;;;;10375867;28;20523;-62
2022/02/25 22:19:22;;;;;;;5.33;1.73;;;17.50;62.40;;;;;;10397549;28;20207;-63
2022/02/25 22:24:45;;;;;;;3.17;1.40;;;17.40;62.30;;;;;;10374432;28;20691;-62
2022/02/25 22:30:08;;;;;;;2.90;1.17;;;17.40;62.40;;;;;;10376095;28;20190;-63
2022/02/25 22:35:30;;;;;;;4.23;1.30;;;17.40;62.30;;;;;;10389928;28;20679;-63
2022/02/25 22:40:55;;;;;;;4.33;1.23;;;17.40;62.30;;;;;;10381473;28;20189;-63
2022/02/25 22:46:17;;;;;;;3.10;1.37;;;17.40;62.30;;;;;;10412160;28;20213;-63
2022/02/25 23:03:00;;;;;;;3.37;1.63;;;17.40;62.30;;;;;;10393401;28;20577;-62
2022/02/25 23:08:22;;;;;;;4.53;1.70;;;17.40;62.30;;;;;;10379999;28;20604;-62
2022/02/25 23:13:45;;;;;;;3.67;1.40;;;17.40;62.40;;;;;;10372171;28;20209;-63
2022/02/25 23:19:08;;;;;;;4.60;1.47;;;17.40;62.40;;;;;;10394237;28;20211;-62
2022/02/25 23:24:30;;;;;;;3.23;1.50;;;17.40;62.30;;;;;;10410991;28;20602;-63
2022/02/25 23:29:54;;;;;;;4.60;1.83;;;17.40;62.30;;;;;;10400971;28;20214;-63
2022/02/25 23:35:17;;;;;;;3.83;1.60;;;17.40;62.30;;;;;;10380000;28;20192;-62
2022/02/25 23:40:39;;;;;;;4.03;1.60;;;17.40;62.30;;;;;;10376354;28;20198;-63
2022/02/25 23:46:02;;;;;;;3.83;1.33;;;17.40;62.40;;;;;;10372324;28;20225;-63
2022/02/25 23:51:24;;;;;;;5.43;1.53;;;17.40;62.30;;;;;;10385241;28;20552;-62
2022/02/25 23:56:46;;;;;;;2.50;1.33;;;17.40;62.30;;;;;;10405049;28;20578;-62
